Time;durP1;ratioP1;P1;durP2;ratioP2;P2;SDS_P1;SDS_P2;PMS_P1;PMS_P2;Temp;Humidity;BMP_temperature;BMP_pressure;BME280_temperature;BME280_humidity;BME280_pressure;Samples;Min_cycle;Max_cycle;Signal;HPM_P1;HPM_P2
2022/03/28 00:01:21;;;;;;;11.18;6.70;;;8.70;63.40;;;;;;5039911;28;20018;-83
2022/03/28 00:03:47;;;;;;;12.65;7.20;;;8.60;63.60;;;;;;5021612;28;20037;-81
2022/03/28 00:06:12;;;;;;;10.77;6.88;;;8.50;64.00;;;;;;5028159;28;20029;-82
2022/03/28 00:08:38;;;;;;;11.88;6.72;;;8.50;64.20;;;;;;5049193;28;20048;-81
2022/03/28 00:11:08;;;;;;;10.35;6.55;;;8.50;64.50;;;;;;5056396;28;20024;-80
2022/03/28 00:13:35;;;;;;;12.98;7.10;;;8.50;64.60;;;;;;5056702;28;20066;-81
2022/03/28 00:16:02;;;;;;;11.68;7.25;;;8.40;64.80;;;;;;5056508;28;20077;-80
2022/03/28 00:18:28;;;;;;;11.10;6.75;;;8.40;65.00;;;;;;5050884;28;20041;-80
2022/03/28 00:20:55;;;;;;;10.88;6.95;;;8.30;65.10;;;;;;5052263;28;20026;-81
2022/03/28 00:23:22;;;;;;;10.43;6.30;;;8.30;65.30;;;;;;5050680;28;20052;-81
2022/03/28 00:25:49;;;;;;;10.77;5.90;;;8.20;65.50;;;;;;5048521;28;20029;-82
2022/03/28 00:28:15;;;;;;;13.55;6.70;;;8.20;65.70;;;;;;5042669;28;20097;-83
2022/03/28 00:30:41;;;;;;;10.95;6.85;;;8.20;65.90;;;;;;5024093;28;20025;-82
2022/03/28 00:33:08;;;;;;;10.80;6.70;;;8.20;65.90;;;;;;5040245;28;20033;-81
2022/03/28 00:35:35;;;;;;;14.88;6.85;;;8.30;65.90;;;;;;5037317;28;20421;-81
2022/03/28 00:38:02;;;;;;;12.68;6.20;;;8.20;65.70;;;;;;5037441;28;20030;-81
2022/03/28 00:40:31;;;;;;;10.65;6.38;;;8.20;65.60;;;;;;5040087;28;20082;-81
2022/03/28 00:42:58;;;;;;;13.25;7.35;;;8.30;65.60;;;;;;5048934;28;20022;-80
2022/03/28 00:45:24;;;;;;;12.75;7.18;;;8.30;65.50;;;;;;5047991;28;20443;-80
2022/03/28 00:47:51;;;;;;;11.98;7.32;;;8.30;65.60;;;;;;5053212;28;20120;-82
2022/03/28 00:50:17;;;;;;;13.07;7.43;;;8.20;65.80;;;;;;5044257;28;20026;-81
2022/03/28 00:52:43;;;;;;;15.68;8.52;;;8.20;66.00;;;;;;5040242;28;20036;-82
2022/03/28 00:55:09;;;;;;;12.55;7.70;;;8.10;66.00;;;;;;5053005;28;20018;-82
2022/03/28 00:57:35;;;;;;;15.32;7.90;;;8.10;66.20;;;;;;5051735;28;20060;-82
2022/03/28 01:00:05;;;;;;;10.27;6.47;;;8.10;66.30;;;;;;5041814;28;20192;-83
2022/03/28 01:02:31;;;;;;;11.18;7.20;;;8.10;66.70;;;;;;5040653;28;20031;-82
2022/03/28 01:04:58;;;;;;;11.65;6.85;;;8.00;66.80;;;;;;5052733;28;20029;-82
2022/03/28 01:07:26;;;;;;;10.43;7.32;;;8.00;67.00;;;;;;5054347;28;20017;-81
2022/03/28 01:09:55;;;;;;;13.00;7.68;;;7.90;67.10;;;;;;5049240;28;20025;-82
2022/03/28 01:12:23;;;;;;;11.75;7.32;;;7.90;67.30;;;;;;5047844;28;20041;-81
2022/03/28 01:14:49;;;;;;;12.70;7.10;;;7.90;67.40;;;;;;5046550;28;20080;-82
2022/03/28 01:20:00;;;;;;;9.52;6.28;;;8.00;67.40;;;;;;5050310;28;20035;-83
2022/03/28 01:22:26;;;;;;;10.40;6.75;;;8.00;67.40;;;;;;5049681;28;20033;-83
2022/03/28 01:24:51;;;;;;;12.40;6.75;;;7.90;67.40;;;;;;5048301;28;20029;-82
2022/03/28 01:27:23;;;;;;;10.68;6.65;;;7.90;67.60;;;;;;5051673;28;20093;-80
2022/03/28 01:29:50;;;;;;;10.73;6.75;;;7.90;67.70;;;;;;5052814;28;20032;-82
2022/03/28 01:32:16;;;;;;;11.90;7.45;;;7.90;67.90;;;;;;5051645;28;20026;-82
2022/03/28 01:34:41;;;;;;;9.95;7.18;;;7.90;68.00;;;;;;5043990;28;20037;-82
2022/03/28 01:37:07;;;;;;;9.60;6.07;;;7.90;68.00;;;;;;5048638;28;20034;-82
2022/03/28 01:39:33;;;;;;;10.50;6.40;;;7.90;68.10;;;;;;5042945;28;20029;-81
2022/03/28 01:41:59;;;;;;;12.40;6.45;;;7.80;68.10;;;;;;5041934;28;20530;-82
2022/03/28 01:44:28;;;;;;;9.65;6.13;;;7.80;68.30;;;;;;5040298;28;20033;-82
2022/03/28 01:46:54;;;;;;;11.48;6.65;;;7.80;68.50;;;;;;5041019;28;20026;-82
2022/03/28 01:49:20;;;;;;;10.10;6.93;;;7.80;68.50;;;;;;5040355;28;20025;-82
2022/03/28 01:51:48;;;;;;;10.63;6.80;;;7.80;68.60;;;;;;5040304;28;20096;-81
2022/03/28 01:54:14;;;;;;;9.38;6.30;;;7.80;68.60;;;;;;5040974;28;20036;-82
2022/03/28 01:56:40;;;;;;;8.80;6.35;;;7.80;68.50;;;;;;5041119;28;20478;-83
2022/03/28 01:59:07;;;;;;;9.20;5.90;;;7.80;68.60;;;;;;5038832;28;20061;-82
2022/03/28 02:01:34;;;;;;;9.50;6.05;;;7.80;68.60;;;;;;5039065;28;20029;-81
2022/03/28 02:04:00;;;;;;;11.30;6.63;;;7.80;68.70;;;;;;5040009;28;20428;-82
2022/03/28 02:06:26;;;;;;;11.13;5.80;;;7.80;68.90;;;;;;5040175;28;20021;-82
2022/03/28 02:08:52;;;;;;;9.80;6.03;;;7.70;68.90;;;;;;5039720;28;20026;-82
2022/03/28 02:11:18;;;;;;;15.02;7.30;;;7.70;69.10;;;;;;5038729;28;20025;-82
2022/03/28 02:13:44;;;;;;;12.40;7.18;;;7.70;69.30;;;;;;5040274;28;20018;-80
2022/03/28 02:16:10;;;;;;;10.43;6.50;;;7.60;69.60;;;;;;5039599;28;20172;-80
2022/03/28 02:18:38;;;;;;;9.65;6.80;;;7.60;69.70;;;;;;5041585;28;20025;-81
2022/03/28 02:21:04;;;;;;;9.32;6.20;;;7.60;69.90;;;;;;5039355;28;20021;-81
2022/03/28 02:23:30;;;;;;;11.90;6.95;;;7.70;70.00;;;;;;5040295;28;20044;-80
2022/03/28 02:25:56;;;;;;;9.88;5.88;;;7.60;69.90;;;;;;5040491;28;20431;-81
2022/03/28 02:28:22;;;;;;;10.63;6.78;;;7.60;70.10;;;;;;5041437;28;20101;-80
2022/03/28 02:30:48;;;;;;;9.93;6.45;;;7.50;70.20;;;;;;5040810;28;20049;-81
2022/03/28 02:33:13;;;;;;;9.32;6.20;;;7.50;70.40;;;;;;5040212;28;20022;-82
2022/03/28 02:35:41;;;;;;;11.13;7.05;;;7.50;70.60;;;;;;5039394;28;20029;-82
2022/03/28 02:38:07;;;;;;;8.82;5.53;;;7.50;70.90;;;;;;5039490;28;20025;-81
2022/03/28 02:40:34;;;;;;;12.18;6.60;;;7.50;71.00;;;;;;5039158;28;20419;-81
2022/03/28 02:43:01;;;;;;;8.95;5.53;;;7.40;71.40;;;;;;5039044;28;20036;-82
2022/03/28 02:45:37;;;;;;;9.07;5.65;;;7.40;71.50;;;;;;5039251;28;20061;-82
2022/03/28 02:48:04;;;;;;;11.43;6.03;;;7.30;71.80;;;;;;5038426;28;20026;-82
2022/03/28 02:50:32;;;;;;;8.52;5.80;;;7.30;72.20;;;;;;5040186;28;20083;-82
2022/03/28 02:52:57;;;;;;;9.23;5.72;;;7.30;72.50;;;;;;5040139;28;20026;-82
2022/03/28 02:55:23;;;;;;;9.40;5.90;;;7.20;72.70;;;;;;5049086;28;20028;-82
2022/03/28 02:57:49;;;;;;;9.85;6.18;;;7.10;73.00;;;;;;5056747;28;20075;-81
2022/03/28 03:00:15;;;;;;;10.88;6.10;;;7.10;73.10;;;;;;5040216;28;20033;-82
2022/03/28 03:02:42;;;;;;;9.82;6.13;;;7.10;73.30;;;;;;5048677;28;20022;-82
2022/03/28 03:05:09;;;;;;;8.80;5.95;;;7.10;73.60;;;;;;5050064;28;20037;-82
2022/03/28 03:07:36;;;;;;;9.43;5.68;;;7.00;73.70;;;;;;5052542;28;20010;-82
2022/03/28 03:10:02;;;;;;;10.35;6.35;;;7.00;73.90;;;;;;5053023;28;20033;-82
2022/03/28 03:12:27;;;;;;;9.45;5.82;;;7.00;73.90;;;;;;5056715;28;20053;-80
2022/03/28 03:14:53;;;;;;;9.10;6.10;;;7.00;73.90;;;;;;5054349;28;20049;-81
2022/03/28 03:17:21;;;;;;;10.05;5.90;;;7.00;73.90;;;;;;5051806;28;20033;-81
2022/03/28 03:19:47;;;;;;;9.23;6.07;;;6.90;74.00;;;;;;5050070;28;20022;-81
2022/03/28 03:22:16;;;;;;;10.48;6.47;;;6.90;74.20;;;;;;5038745;28;20033;-81
2022/03/28 03:24:42;;;;;;;9.77;6.03;;;6.90;74.40;;;;;;5037004;28;20036;-77
2022/03/28 03:27:09;;;;;;;8.90;5.90;;;6.80;74.60;;;;;;5033061;28;20545;-79
2022/03/28 03:29:35;;;;;;;9.02;6.00;;;6.80;74.80;;;;;;5032863;28;20113;-78
2022/03/28 03:32:03;;;;;;;8.13;5.53;;;6.80;75.00;;;;;;5023063;28;20084;-79
2022/03/28 03:34:29;;;;;;;8.48;5.80;;;6.80;75.00;;;;;;5017755;28;20021;-79
2022/03/28 03:36:55;;;;;;;8.35;5.45;;;6.80;75.10;;;;;;5027273;28;20022;-75
2022/03/28 03:39:25;;;;;;;9.73;6.43;;;6.90;74.90;;;;;;5032937;28;20018;-76
2022/03/28 03:41:54;;;;;;;6.93;5.25;;;6.90;75.10;;;;;;5018387;28;20045;-77
2022/03/28 03:44:20;;;;;;;8.10;5.53;;;6.80;75.20;;;;;;5019070;28;20033;-79
2022/03/28 03:46:47;;;;;;;8.15;6.00;;;6.80;75.30;;;;;;5030807;28;20025;-77
2022/03/28 03:49:13;;;;;;;8.32;5.20;;;6.80;75.50;;;;;;5038505;28;20028;-77
2022/03/28 03:51:39;;;;;;;8.45;5.35;;;6.80;75.70;;;;;;5037346;28;20052;-77
2022/03/28 03:54:05;;;;;;;9.35;5.72;;;6.80;75.80;;;;;;5037251;28;20030;-82
2022/03/28 03:56:31;;;;;;;9.40;5.70;;;6.80;76.00;;;;;;5033209;28;20029;-83
2022/03/28 03:58:57;;;;;;;8.23;5.07;;;6.80;76.10;;;;;;5034595;28;20091;-83
2022/03/28 04:01:26;;;;;;;7.45;4.60;;;6.70;76.30;;;;;;5026868;28;20100;-83
2022/03/28 04:03:52;;;;;;;12.50;6.95;;;6.70;76.50;;;;;;5034399;28;20525;-81
2022/03/28 04:06:17;;;;;;;8.15;6.13;;;6.70;76.60;;;;;;5035545;28;20378;-82
2022/03/28 04:08:43;;;;;;;9.75;6.35;;;6.70;76.90;;;;;;5035427;28;20033;-84
2022/03/28 04:11:09;;;;;;;8.95;5.65;;;6.70;77.00;;;;;;5034364;28;20034;-82
2022/03/28 04:13:35;;;;;;;9.88;6.20;;;6.70;76.80;;;;;;5035313;28;20073;-84
2022/03/28 04:16:02;;;;;;;10.70;6.75;;;6.70;76.70;;;;;;5036775;28;20370;-82
2022/03/28 04:18:28;;;;;;;9.07;5.57;;;6.70;76.70;;;;;;5034404;28;20028;-82
2022/03/28 04:20:54;;;;;;;9.93;6.35;;;6.70;76.70;;;;;;5036634;28;20049;-82
2022/03/28 04:23:21;;;;;;;8.30;6.03;;;6.70;76.80;;;;;;5035487;28;20017;-83
2022/03/28 04:25:47;;;;;;;8.13;5.65;;;6.70;76.60;;;;;;5036641;28;20406;-82
2022/03/28 04:28:13;;;;;;;8.38;5.57;;;6.70;76.40;;;;;;5038256;28;20018;-82
2022/03/28 04:30:38;;;;;;;9.15;5.47;;;6.60;76.40;;;;;;5038473;28;20036;-81
2022/03/28 04:33:07;;;;;;;10.38;6.25;;;6.60;76.40;;;;;;5043369;28;20030;-81
2022/03/28 04:35:33;;;;;;;10.40;6.25;;;6.60;76.40;;;;;;5052017;28;20029;-80
2022/03/28 04:38:04;;;;;;;11.40;6.30;;;6.60;76.30;;;;;;5041842;28;20125;-81
2022/03/28 04:40:30;;;;;;;10.98;7.63;;;6.60;76.30;;;;;;5036644;28;20455;-80
2022/03/28 04:42:55;;;;;;;11.77;6.47;;;6.50;76.40;;;;;;5036685;28;20045;-81
2022/03/28 04:45:21;;;;;;;15.15;8.40;;;6.50;76.50;;;;;;5037784;28;20025;-81
2022/03/28 04:47:47;;;;;;;13.13;7.50;;;6.50;76.50;;;;;;5036541;28;20018;-79
2022/03/28 04:50:13;;;;;;;14.75;8.02;;;6.50;76.40;;;;;;5036093;28;20136;-81
2022/03/28 04:52:38;;;;;;;10.40;6.20;;;6.50;76.60;;;;;;5041144;28;20060;-80
2022/03/28 04:55:05;;;;;;;13.27;7.55;;;6.50;76.70;;;;;;5039633;28;20044;-81
2022/03/28 04:57:31;;;;;;;9.55;6.32;;;6.50;76.70;;;;;;5038665;28;20021;-82
2022/03/28 04:59:57;;;;;;;11.05;6.85;;;6.50;76.60;;;;;;5044577;28;20022;-82
2022/03/28 05:02:23;;;;;;;10.70;6.95;;;6.60;76.50;;;;;;5056140;28;20022;-81
2022/03/28 05:04:49;;;;;;;12.07;7.57;;;6.50;76.40;;;;;;5046841;28;20052;-81
2022/03/28 05:07:26;;;;;;;10.38;6.97;;;6.50;76.50;;;;;;5040694;28;20048;-81
2022/03/28 05:09:53;;;;;;;11.65;7.55;;;6.50;76.50;;;;;;5045056;28;20069;-81
2022/03/28 05:12:20;;;;;;;10.75;6.88;;;6.60;76.50;;;;;;5042793;28;20025;-81
2022/03/28 05:14:46;;;;;;;14.18;6.95;;;6.60;76.40;;;;;;5048261;28;20097;-81
2022/03/28 05:17:12;;;;;;;12.43;7.70;;;6.60;76.30;;;;;;5041102;28;20075;-81
2022/03/28 05:19:38;;;;;;;9.45;7.05;;;6.60;76.20;;;;;;5040165;28;20026;-81
2022/03/28 05:22:04;;;;;;;11.73;7.10;;;6.60;76.20;;;;;;5039944;28;20223;-80
2022/03/28 05:24:30;;;;;;;12.40;7.55;;;6.60;76.20;;;;;;5034844;28;20045;-82
2022/03/28 05:26:56;;;;;;;10.43;6.47;;;6.60;76.30;;;;;;5023717;28;20037;-81
2022/03/28 05:29:24;;;;;;;11.05;7.15;;;6.60;76.40;;;;;;5033012;28;20060;-81
2022/03/28 05:31:50;;;;;;;11.98;6.55;;;6.70;76.40;;;;;;5040558;28;20018;-82
2022/03/28 05:34:16;;;;;;;11.02;7.00;;;6.70;76.20;;;;;;5040326;28;20030;-81
2022/03/28 05:36:43;;;;;;;9.98;6.35;;;6.70;76.10;;;;;;5041029;28;20040;-81
2022/03/28 05:39:09;;;;;;;11.68;7.00;;;6.70;76.20;;;;;;5041280;28;20493;-81
2022/03/28 05:41:36;;;;;;;8.35;6.70;;;6.80;76.20;;;;;;5037024;28;20485;-80
2022/03/28 05:44:01;;;;;;;12.10;7.95;;;6.80;76.10;;;;;;5043688;28;20382;-81
2022/03/28 05:46:29;;;;;;;13.52;7.30;;;6.90;76.00;;;;;;5045925;28;20022;-82
2022/03/28 05:48:54;;;;;;;13.68;7.40;;;6.90;75.80;;;;;;5051615;28;20021;-80
2022/03/28 05:51:21;;;;;;;12.07;7.03;;;7.00;75.60;;;;;;5048870;28;20080;-81
2022/03/28 05:53:47;;;;;;;13.35;7.63;;;7.00;75.20;;;;;;5046656;28;20031;-83
2022/03/28 05:56:13;;;;;;;13.07;8.05;;;7.10;75.10;;;;;;5040907;28;20026;-82
2022/03/28 05:58:39;;;;;;;12.50;7.03;;;7.10;74.80;;;;;;5041858;28;20026;-80
2022/03/28 06:01:05;;;;;;;12.77;7.72;;;7.10;74.50;;;;;;5044646;28;20025;-80
2022/03/28 06:03:37;;;;;;;10.70;7.10;;;7.20;74.50;;;;;;5053259;28;20012;-81
2022/03/28 06:06:26;;;;;;;15.38;8.60;;;7.20;74.20;;;;;;5056664;28;20029;-84
2022/03/28 06:08:54;;;;;;;13.82;8.23;;;7.30;73.90;;;;;;5055809;28;20059;-86
2022/03/28 06:11:20;;;;;;;12.98;8.32;;;7.40;73.70;;;;;;5049690;28;20026;-81
2022/03/28 06:13:46;;;;;;;11.45;7.22;;;7.50;73.60;;;;;;5043531;28;20017;-79
2022/03/28 06:16:12;;;;;;;15.80;8.68;;;7.60;73.20;;;;;;5044418;28;20094;-79
2022/03/28 06:18:38;;;;;;;12.77;8.20;;;7.70;72.70;;;;;;5045600;28;20026;-81
2022/03/28 06:21:04;;;;;;;14.02;8.60;;;7.80;72.20;;;;;;5045775;28;20021;-82
2022/03/28 06:23:30;;;;;;;12.07;7.45;;;7.90;71.90;;;;;;5044581;28;20198;-81
2022/03/28 06:25:55;;;;;;;12.80;7.68;;;8.00;71.40;;;;;;5042548;28;20083;-80
2022/03/28 06:28:22;;;;;;;12.52;7.30;;;8.10;71.10;;;;;;5045275;28;20026;-79
2022/03/28 06:30:47;;;;;;;14.65;8.52;;;8.10;70.80;;;;;;5044496;28;20022;-82
2022/03/28 06:33:13;;;;;;;18.17;8.82;;;8.10;70.60;;;;;;5043327;28;20052;-80
2022/03/28 06:35:40;;;;;;;15.32;9.32;;;8.20;70.30;;;;;;5042570;28;20053;-80
2022/03/28 06:38:07;;;;;;;14.00;8.10;;;8.20;70.30;;;;;;5043514;28;20029;-81
2022/03/28 06:40:33;;;;;;;12.30;7.82;;;8.30;70.20;;;;;;5043513;28;20124;-81
2022/03/28 06:42:59;;;;;;;16.00;8.68;;;8.40;70.10;;;;;;5044525;28;20029;-79
2022/03/28 06:45:25;;;;;;;12.38;8.05;;;8.50;69.70;;;;;;5045072;28;20025;-81
2022/03/28 06:47:51;;;;;;;12.48;7.88;;;8.60;69.40;;;;;;5055948;28;20037;-82
2022/03/28 06:50:19;;;;;;;18.92;8.10;;;8.70;69.10;;;;;;5044424;28;20156;-79
2022/03/28 06:52:45;;;;;;;14.50;9.60;;;8.80;68.60;;;;;;5047257;28;20029;-81
2022/03/28 06:55:14;;;;;;;16.40;10.48;;;8.90;68.10;;;;;;5044792;28;20041;-81
2022/03/28 06:57:40;;;;;;;13.80;9.20;;;9.10;67.80;;;;;;5040259;28;20021;-80
2022/03/28 07:00:07;;;;;;;16.27;9.43;;;9.20;67.40;;;;;;5042553;28;20026;-79
2022/03/28 07:02:35;;;;;;;18.73;9.75;;;9.30;67.00;;;;;;5041529;28;20040;-79
2022/03/28 07:05:01;;;;;;;14.68;9.95;;;9.40;66.60;;;;;;5042667;28;20017;-82
2022/03/28 07:07:26;;;;;;;13.25;8.57;;;9.60;66.20;;;;;;5045141;28;20031;-83
2022/03/28 07:09:52;;;;;;;15.90;10.30;;;9.70;65.90;;;;;;5042222;28;20025;-79
2022/03/28 07:12:18;;;;;;;14.40;9.30;;;9.80;65.40;;;;;;5042050;28;20029;-80
2022/03/28 07:14:45;;;;;;;15.95;9.07;;;9.90;65.10;;;;;;5042746;28;20033;-79
2022/03/28 07:17:11;;;;;;;15.70;9.95;;;10.00;64.90;;;;;;5043098;28;20032;-80
2022/03/28 07:19:36;;;;;;;18.63;10.75;;;10.10;64.60;;;;;;5040654;28;20093;-79
2022/03/28 07:22:04;;;;;;;18.58;10.80;;;10.20;64.20;;;;;;5044512;28;20022;-80
2022/03/28 07:24:30;;;;;;;18.77;11.45;;;10.40;63.80;;;;;;5042282;28;20040;-82
2022/03/28 07:26:56;;;;;;;18.80;10.20;;;10.60;63.20;;;;;;5039769;28;20048;-79
2022/03/28 07:29:22;;;;;;;16.30;9.68;;;10.80;63.10;;;;;;5039077;28;20470;-79
2022/03/28 07:31:49;;;;;;;14.57;8.82;;;11.00;61.90;;;;;;5040962;28;20026;-80
2022/03/28 07:34:34;;;;;;;13.52;9.00;;;11.10;61.40;;;;;;5045073;28;20595;-80
2022/03/28 07:37:05;;;;;;;11.55;8.07;;;11.30;60.90;;;;;;5044363;28;20026;-80
2022/03/28 07:39:33;;;;;;;14.25;8.25;;;11.50;60.30;;;;;;5045074;28;20393;-81
2022/03/28 07:41:59;;;;;;;11.27;7.18;;;11.70;59.70;;;;;;5045245;28;20040;-83
2022/03/28 07:44:24;;;;;;;13.75;7.97;;;11.90;59.20;;;;;;5047034;28;20037;-83
2022/03/28 07:46:50;;;;;;;14.68;7.75;;;12.10;58.60;;;;;;5046853;28;20028;-81
2022/03/28 07:49:19;;;;;;;16.90;8.95;;;12.30;58.00;;;;;;5036630;28;20030;-81
2022/03/28 07:51:45;;;;;;;13.80;9.15;;;12.50;57.20;;;;;;5035801;28;20027;-81
2022/03/28 07:54:11;;;;;;;15.88;9.02;;;12.70;55.90;;;;;;5048004;28;20021;-81
2022/03/28 07:56:38;;;;;;;15.93;9.07;;;12.90;55.30;;;;;;5049506;28;20025;-81
2022/03/28 07:59:04;;;;;;;18.92;9.80;;;13.10;54.70;;;;;;5052313;28;20049;-80
2022/03/28 08:01:30;;;;;;;15.07;10.25;;;13.30;53.80;;;;;;5050949;28;20040;-81
2022/03/28 08:03:55;;;;;;;20.58;10.48;;;13.50;53.10;;;;;;5049588;28;20025;-79
2022/03/28 08:06:21;;;;;;;17.38;9.77;;;13.70;52.50;;;;;;5048632;28;20021;-83
2022/03/28 08:08:47;;;;;;;14.93;9.60;;;13.90;52.10;;;;;;5048408;28;20053;-80
2022/03/28 08:11:15;;;;;;;19.20;10.20;;;14.00;51.70;;;;;;5047354;28;20029;-80
2022/03/28 08:13:41;;;;;;;18.20;10.68;;;14.10;51.10;;;;;;5046513;28;20034;-81
2022/03/28 08:16:08;;;;;;;17.02;10.85;;;14.30;50.70;;;;;;5044081;28;20112;-80
2022/03/28 08:18:37;;;;;;;13.25;8.95;;;14.50;51.20;;;;;;5043826;28;20093;-80
2022/03/28 08:21:03;;;;;;;18.02;11.15;;;14.70;50.20;;;;;;5046469;28;20018;-82
2022/03/28 08:23:29;;;;;;;18.60;11.30;;;14.80;49.60;;;;;;5048090;28;20022;-80
2022/03/28 08:25:55;;;;;;;22.30;12.10;;;15.00;49.10;;;;;;5046135;28;20132;-80
2022/03/28 08:28:21;;;;;;;22.70;12.27;;;15.10;48.20;;;;;;5044608;28;20009;-79
2022/03/28 08:30:47;;;;;;;21.50;11.88;;;15.30;48.00;;;;;;5043422;28;20089;-81
2022/03/28 08:33:13;;;;;;;15.75;10.23;;;15.40;48.00;;;;;;5048247;28;20092;-80
2022/03/28 08:35:40;;;;;;;16.90;11.00;;;15.60;47.70;;;;;;5057141;28;20057;-81
2022/03/28 08:38:07;;;;;;;19.55;10.80;;;15.70;47.10;;;;;;5052077;28;20540;-79
2022/03/28 08:40:33;;;;;;;17.90;12.05;;;15.90;47.10;;;;;;5052182;28;20026;-82
2022/03/28 08:42:59;;;;;;;22.85;13.13;;;16.00;46.50;;;;;;5054318;28;20040;-81
2022/03/28 08:45:25;;;;;;;25.20;13.15;;;16.20;45.90;;;;;;5053034;28;20112;-81
2022/03/28 08:47:56;;;;;;;20.38;12.98;;;16.20;45.70;;;;;;5056776;28;20022;-80
2022/03/28 08:50:21;;;;;;;20.27;12.25;;;16.30;45.40;;;;;;5055526;28;20021;-81
2022/03/28 08:52:47;;;;;;;18.40;12.45;;;16.40;45.10;;;;;;5056535;28;20025;-81
2022/03/28 08:55:15;;;;;;;18.95;11.95;;;16.60;45.20;;;;;;5051775;28;20068;-81
2022/03/28 08:57:41;;;;;;;21.90;12.82;;;16.70;44.20;;;;;;5054202;28;20039;-80
2022/03/28 09:00:12;;;;;;;18.48;12.52;;;16.80;44.20;;;;;;5054669;28;20044;-81
2022/03/28 09:02:37;;;;;;;19.33;11.95;;;17.00;43.90;;;;;;5047460;28;20056;-81
2022/03/28 09:05:04;;;;;;;15.98;10.20;;;17.10;43.70;;;;;;5052317;28;20033;-80
2022/03/28 09:07:30;;;;;;;21.15;12.90;;;17.30;43.60;;;;;;5051722;28;20048;-82
2022/03/28 09:10:01;;;;;;;30.17;13.20;;;17.50;42.70;;;;;;5051980;28;20025;-81
2022/03/28 09:12:27;;;;;;;23.35;12.50;;;17.70;42.20;;;;;;5051252;28;20022;-81
2022/03/28 09:14:58;;;;;;;28.33;13.88;;;17.80;41.50;;;;;;5051170;28;20382;-79
2022/03/28 09:17:25;;;;;;;20.38;12.50;;;17.80;41.30;;;;;;5053067;28;20459;-80
2022/03/28 09:20:03;;;;;;;19.33;13.38;;;17.90;41.40;;;;;;5052742;28;20089;-81
2022/03/28 09:22:31;;;;;;;19.95;11.43;;;18.00;41.20;;;;;;5051648;28;20064;-82
2022/03/28 09:25:03;;;;;;;19.65;12.68;;;18.30;41.20;;;;;;5051377;28;20030;-81
2022/03/28 09:27:40;;;;;;;18.20;12.00;;;18.50;40.30;;;;;;5051855;28;20025;-84
2022/03/28 09:30:14;;;;;;;20.17;12.77;;;18.70;40.40;;;;;;5051703;28;20473;-82
2022/03/28 09:32:49;;;;;;;20.42;11.73;;;18.80;39.30;;;;;;5059492;28;20086;-81
2022/03/28 09:35:26;;;;;;;20.23;12.20;;;18.70;40.00;;;;;;5058435;28;20029;-81
2022/03/28 09:38:04;;;;;;;23.02;13.05;;;18.80;39.50;;;;;;5051248;28;20030;-82
2022/03/28 09:40:29;;;;;;;21.42;12.07;;;18.90;39.40;;;;;;5051968;28;20033;-80
2022/03/28 09:42:57;;;;;;;20.05;12.00;;;19.00;39.50;;;;;;5053094;28;20039;-80
2022/03/28 09:45:25;;;;;;;21.00;12.93;;;19.30;39.20;;;;;;5049305;28;20029;-82
2022/03/28 09:48:11;;;;;;;20.63;13.18;;;19.30;38.90;;;;;;5048795;28;20025;-81
2022/03/28 09:50:39;;;;;;;18.83;13.10;;;19.40;38.80;;;;;;5049847;28;20033;-78
2022/03/28 09:53:20;;;;;;;19.00;12.10;;;19.40;38.80;;;;;;5047227;28;20036;-78
2022/03/28 09:55:49;;;;;;;20.52;13.07;;;19.60;38.60;;;;;;5046660;28;20040;-80
2022/03/28 09:58:34;;;;;;;23.58;14.20;;;19.80;38.00;;;;;;5047009;28;20089;-80
2022/03/28 10:04:22;;;;;;;21.60;13.30;;;19.70;37.90;;;;;;5050701;28;20064;-82
2022/03/28 10:06:49;;;;;;;18.63;10.80;;;19.60;37.90;;;;;;5052977;28;20021;-85
2022/03/28 10:09:15;;;;;;;17.27;11.60;;;19.60;38.40;;;;;;5055875;28;20010;-83
2022/03/28 10:11:43;;;;;;;19.92;12.68;;;19.70;38.40;;;;;;5056243;28;20021;-84
2022/03/28 10:14:09;;;;;;;22.05;12.43;;;19.80;37.90;;;;;;5054892;28;20084;-79
2022/03/28 10:16:36;;;;;;;22.20;14.10;;;20.00;37.60;;;;;;5047038;28;20472;-77
2022/03/28 10:19:03;;;;;;;22.48;13.18;;;20.10;37.20;;;;;;5045872;28;20097;-78
2022/03/28 10:21:32;;;;;;;21.35;13.60;;;20.00;37.20;;;;;;5046768;28;20685;-81
2022/03/28 10:24:22;;;;;;;20.08;12.30;;;20.00;37.30;;;;;;5045914;28;20439;-78
2022/03/28 10:26:53;;;;;;;19.25;13.48;;;20.20;37.30;;;;;;5047538;28;20033;-80
2022/03/28 10:29:22;;;;;;;18.63;12.90;;;20.40;36.60;;;;;;5046565;28;20024;-79
2022/03/28 10:32:01;;;;;;;17.02;12.00;;;20.40;36.60;;;;;;5046686;28;20017;-80
2022/03/28 10:34:43;;;;;;;16.83;11.25;;;20.60;36.80;;;;;;5047267;28;20017;-79
2022/03/28 10:37:46;;;;;;;23.83;15.15;;;20.90;36.50;;;;;;5044823;28;20025;-78
2022/03/28 10:40:29;;;;;;;24.15;13.98;;;20.90;35.80;;;;;;5035559;28;20052;-80
2022/03/28 10:42:57;;;;;;;22.95;14.27;;;20.80;35.90;;;;;;5047334;28;20052;-79
2022/03/28 10:45:37;;;;;;;24.35;14.10;;;20.70;36.00;;;;;;5045990;28;20417;-79
2022/03/28 10:48:07;;;;;;;21.63;12.93;;;20.70;36.00;;;;;;5045247;28;20060;-80
2022/03/28 10:50:36;;;;;;;21.83;14.63;;;20.70;36.70;;;;;;5036562;28;20040;-80
2022/03/28 10:53:13;;;;;;;20.77;13.00;;;20.80;35.30;;;;;;5042928;28;20032;-81
2022/03/28 10:55:45;;;;;;;22.73;13.95;;;20.80;35.70;;;;;;5042661;28;20030;-82
2022/03/28 10:58:23;;;;;;;20.45;12.43;;;20.90;35.60;;;;;;5043287;28;20022;-80
2022/03/28 11:01:07;;;;;;;19.45;12.68;;;20.90;35.60;;;;;;5046271;28;20045;-80
2022/03/28 11:04:01;;;;;;;20.60;14.02;;;21.20;35.10;;;;;;5045894;28;20068;-79
2022/03/28 11:06:49;;;;;;;20.73;12.15;;;21.40;34.60;;;;;;5046271;28;20022;-81
2022/03/28 11:09:34;;;;;;;17.40;12.18;;;21.30;35.00;;;;;;5045381;28;20045;-80
2022/03/28 11:12:04;;;;;;;18.50;13.30;;;21.50;35.00;;;;;;5048992;28;20024;-80
2022/03/28 11:14:51;;;;;;;18.20;12.30;;;21.60;34.40;;;;;;5047301;28;20026;-80
2022/03/28 11:17:25;;;;;;;15.43;11.00;;;21.70;34.40;;;;;;5046936;28;20048;-79
2022/03/28 11:20:00;;;;;;;21.60;14.20;;;21.80;34.40;;;;;;5049708;28;20032;-82
2022/03/28 11:22:39;;;;;;;22.05;13.60;;;21.90;33.20;;;;;;5056149;28;20060;-82
2022/03/28 11:25:25;;;;;;;24.08;13.88;;;21.70;33.80;;;;;;5055732;28;20021;-80
2022/03/28 11:28:11;;;;;;;19.00;12.60;;;21.40;33.80;;;;;;5052240;28;20040;-79
2022/03/28 11:31:02;;;;;;;20.83;14.00;;;21.30;34.30;;;;;;5054457;28;20030;-81
2022/03/28 11:33:34;;;;;;;17.35;12.90;;;21.40;33.90;;;;;;5030867;28;20041;-79
2022/03/28 11:36:03;;;;;;;;;;;21.40;33.80;;;;;;5048891;28;20064;-81
2022/03/28 11:38:35;;;;;;;16.88;12.93;;;21.60;33.40;;;;;;5044792;28;19944;-79
2022/03/28 11:41:02;;;;;;;16.73;11.85;;;21.80;32.90;;;;;;5048781;28;20081;-83
2022/03/28 11:43:37;;;;;;;18.63;12.57;;;21.90;32.80;;;;;;5048182;28;20014;-79
2022/03/28 11:46:17;;;;;;;18.25;13.15;;;22.00;32.40;;;;;;5045676;28;20396;-79
2022/03/28 11:49:04;;;;;;;19.83;13.68;;;22.10;32.50;;;;;;5045482;28;20029;-80
2022/03/28 11:51:32;;;;;;;21.33;14.20;;;22.20;31.50;;;;;;5018956;28;20111;-79
2022/03/28 11:54:07;;;;;;;24.48;13.55;;;22.00;31.80;;;;;;5019695;28;20041;-80
2022/03/28 11:58:14;;;;;;;22.63;13.73;;;21.90;31.30;;;;;;5028323;28;20025;-80
2022/03/28 11:59:24;;;;;;;18.73;12.05;;;21.70;31.30;;;;;;5037401;28;20028;-82
2022/03/28 12:01:57;;;;;;;17.08;12.50;;;21.50;31.70;;;;;;5035974;28;20028;-78
2022/03/28 12:04:24;;;;;;;18.02;12.18;;;21.40;31.70;;;;;;5039440;28;20064;-80
2022/03/28 12:06:53;;;;;;;24.63;13.60;;;21.50;31.70;;;;;;5027415;28;20049;-80
2022/03/28 12:09:23;;;;;;;19.95;12.63;;;21.70;31.70;;;;;;5020258;28;20105;-79
2022/03/28 12:11:51;;;;;;;20.70;12.77;;;21.80;31.50;;;;;;5017837;28;20063;-78
2022/03/28 12:14:17;;;;;;;22.17;12.82;;;21.80;31.10;;;;;;5020090;28;20030;-79
2022/03/28 12:17:01;;;;;;;21.27;13.77;;;21.90;31.20;;;;;;5020191;28;20101;-79
2022/03/28 12:19:28;;;;;;;19.27;12.52;;;22.10;30.20;;;;;;5021414;28;20033;-79
2022/03/28 12:21:57;;;;;;;20.27;13.20;;;22.00;30.50;;;;;;5039910;28;20064;-80
2022/03/28 12:24:25;;;;;;;17.35;12.32;;;22.00;30.40;;;;;;5041161;28;20075;-80
2022/03/28 12:26:53;;;;;;;19.35;11.82;;;22.00;30.40;;;;;;5037449;28;20048;-80
2022/03/28 12:29:19;;;;;;;21.80;14.32;;;22.20;30.50;;;;;;5041247;28;20398;-79
2022/03/28 12:31:47;;;;;;;16.98;12.35;;;22.40;30.60;;;;;;5030965;28;20092;-79
2022/03/28 12:34:14;;;;;;;15.85;11.88;;;22.30;30.70;;;;;;5033471;28;20087;-79
2022/03/28 12:36:41;;;;;;;16.88;12.75;;;22.30;30.90;;;;;;5033211;28;20248;-77
2022/03/28 12:39:11;;;;;;;17.27;12.85;;;22.30;30.90;;;;;;5063038;23;20040;-82
2022/03/28 12:41:45;;;;;;;14.80;11.27;;;22.40;30.80;;;;;;5064055;28;20056;-79
2022/03/28 12:44:26;;;;;;;19.42;12.15;;;22.70;30.60;;;;;;5071734;28;20012;-82
2022/03/28 12:47:03;;;;;;;17.08;10.95;;;22.90;29.80;;;;;;5068786;28;20020;-82
2022/03/28 12:49:40;;;;;;;16.50;11.57;;;23.10;29.70;;;;;;5069148;28;20036;-82
2022/03/28 12:52:10;;;;;;;24.65;13.63;;;23.20;29.50;;;;;;5070457;28;20089;-81
2022/03/28 12:54:36;;;;;;;20.83;11.80;;;23.30;29.10;;;;;;5069182;28;20025;-82